Time;durP1;ratioP1;P1;durP2;ratioP2;P2;SDS_P1;SDS_P2;PMS_P1;PMS_P2;Temp;Humidity;BMP_temperature;BMP_pressure;BME280_temperature;BME280_humidity;BME280_pressure;Samples;Min_cycle;Max_cycle;Signal;HPM_P1;HPM_P2
2022/01/30 00:00:20;;;;;;;22.80;13.83;;;;;21.30;101357.00;;;;2064001;28;20215;-61
2022/01/30 00:01:21;;;;;;;22.20;15.43;;;;;21.30;101351.00;;;;2067756;28;20260;-61
2022/01/30 00:02:21;;;;;;;20.97;14.23;;;;;21.20;101351.00;;;;2067775;28;20710;-61
2022/01/30 00:03:22;;;;;;;20.63;14.60;;;;;21.30;101358.00;;;;2067786;28;20211;-61
2022/01/30 00:04:22;;;;;;;22.40;15.30;;;;;21.20;101352.00;;;;2067467;28;20252;-61
2022/01/30 00:05:22;;;;;;;22.33;14.93;;;;;21.20;101352.00;;;;2067028;28;20224;-61
2022/01/30 00:06:23;;;;;;;21.70;14.40;;;;;21.20;101357.00;;;;2064894;28;20206;-61
2022/01/30 00:07:23;;;;;;;20.00;13.43;;;;;21.20;101369.00;;;;2066898;28;20210;-61
2022/01/30 00:08:23;;;;;;;20.80;15.20;;;;;21.20;101352.00;;;;2067068;28;20302;-61
2022/01/30 00:09:24;;;;;;;18.03;13.60;;;;;21.20;101348.00;;;;2067801;28;20217;-61
2022/01/30 00:10:24;;;;;;;18.30;12.90;;;;;21.20;101348.00;;;;2067368;28;20207;-61
2022/01/30 00:11:29;;;;;;;24.83;16.30;;;;;21.20;101346.00;;;;2067817;28;20214;-61
2022/01/30 00:12:42;;;;;;;19.17;13.10;;;;;21.20;101355.00;;;;2067112;28;20214;-61
2022/01/30 00:13:42;;;;;;;16.55;12.68;;;;;21.20;101349.00;;;;2066844;28;20233;-61
2022/01/30 00:14:43;;;;;;;17.17;12.77;;;;;21.20;101356.00;;;;2066300;28;20257;-61
2022/01/30 00:15:50;;;;;;;19.30;12.73;;;;;21.20;101364.00;;;;2066974;28;20253;-61
2022/01/30 00:17:03;;;;;;;17.30;12.18;;;;;21.20;101359.00;;;;2067699;28;20233;-61
2022/01/30 00:18:15;;;;;;;18.92;11.93;;;;;21.20;101349.00;;;;2064354;28;20230;-61
2022/01/30 00:19:28;;;;;;;16.70;11.48;;;;;21.20;101365.00;;;;2066700;28;20215;-61
2022/01/30 00:20:32;;;;;;;20.10;13.35;;;;;21.10;101356.00;;;;2067246;28;20213;-61
2022/01/30 00:21:40;;;;;;;19.45;13.50;;;;;21.10;101370.00;;;;2061283;28;20317;-61
2022/01/30 00:24:27;;;;;;;16.38;12.15;;;;;21.10;101359.00;;;;2055904;28;20218;-61
2022/01/30 00:25:43;;;;;;;14.70;11.23;;;;;21.10;101362.00;;;;2057645;28;20239;-61
2022/01/30 00:26:43;;;;;;;16.70;11.55;;;;;21.10;101366.00;;;;2054914;28;20215;-61
2022/01/30 00:27:56;;;;;;;15.23;11.27;;;;;21.10;101364.00;;;;2057158;28;20219;-61
2022/01/30 00:28:56;;;;;;;16.70;10.35;;;;;21.10;101369.00;;;;2058051;28;20761;-61
2022/01/30 00:29:57;;;;;;;15.00;10.20;;;;;21.10;101372.00;;;;2059363;28;20215;-61
2022/01/30 00:30:57;;;;;;;17.50;10.93;;;;;21.10;101347.00;;;;2066822;28;20225;-61
2022/01/30 00:31:57;;;;;;;14.93;10.77;;;;;21.10;101369.00;;;;2066441;28;20226;-61
2022/01/30 00:32:58;;;;;;;13.70;10.00;;;;;21.10;101363.00;;;;2066302;28;20614;-61
2022/01/30 00:33:59;;;;;;;15.07;10.77;;;;;21.10;101368.00;;;;2066899;28;20578;-61
2022/01/30 00:34:59;;;;;;;14.52;10.35;;;;;21.10;101379.00;;;;2067239;28;20215;-61
2022/01/30 00:36:00;;;;;;;14.63;10.30;;;;;21.10;101379.00;;;;2064076;28;20242;-60
2022/01/30 00:37:02;;;;;;;16.60;10.37;;;;;21.10;101386.00;;;;2066941;28;20219;-61
2022/01/30 00:38:03;;;;;;;12.70;9.55;;;;;21.10;101377.00;;;;2066694;28;20211;-61
2022/01/30 00:39:03;;;;;;;15.67;9.83;;;;;21.10;101377.00;;;;2067278;28;20227;-61
2022/01/30 00:40:04;;;;;;;13.30;9.50;;;;;21.10;101385.00;;;;2067669;28;20837;-61
2022/01/30 00:41:05;;;;;;;18.48;9.93;;;;;21.10;101386.00;;;;2058315;28;20594;-61
2022/01/30 00:42:06;;;;;;;17.67;10.23;;;;;21.10;101383.00;;;;2058990;28;20219;-61
2022/01/30 00:43:06;;;;;;;17.37;11.00;;;;;21.10;101389.00;;;;2067011;28;20461;-61
2022/01/30 00:44:06;;;;;;;18.30;9.50;;;;;21.10;101386.00;;;;2067471;28;20229;-61
2022/01/30 00:45:07;;;;;;;14.00;8.50;;;;;21.10;101385.00;;;;2067379;28;20238;-61
2022/01/30 00:46:07;;;;;;;14.57;8.87;;;;;21.00;101378.00;;;;2064560;28;20309;-61
2022/01/30 00:47:12;;;;;;;12.27;8.67;;;;;21.00;101377.00;;;;2066821;28;20224;-61
2022/01/30 00:48:13;;;;;;;14.32;9.02;;;;;21.00;101381.00;;;;2066870;28;20712;-61
2022/01/30 00:49:13;;;;;;;13.77;9.27;;;;;21.00;101386.00;;;;2069794;28;20218;-60
2022/01/30 00:50:14;;;;;;;12.40;8.07;;;;;21.00;101389.00;;;;2067066;28;20223;-61
2022/01/30 00:51:17;;;;;;;11.70;7.70;;;;;21.00;101387.00;;;;2054266;28;20215;-61
2022/01/30 00:52:17;;;;;;;13.88;8.43;;;;;21.00;101395.00;;;;2066351;28;20218;-61
2022/01/30 00:53:18;;;;;;;15.93;7.53;;;;;21.00;101389.00;;;;2066583;28;20243;-61
2022/01/30 00:54:18;;;;;;;13.00;8.47;;;;;21.00;101389.00;;;;2066807;28;20379;-61
2022/01/30 00:55:19;;;;;;;14.70;8.93;;;;;21.00;101387.00;;;;2067572;28;21251;-60
2022/01/30 00:56:19;;;;;;;12.85;8.00;;;;;21.00;101387.00;;;;2067649;28;20219;-61
2022/01/30 00:57:20;;;;;;;12.50;8.43;;;;;21.00;101393.00;;;;2068345;28;20214;-61
2022/01/30 00:58:20;;;;;;;11.30;7.77;;;;;21.00;101399.00;;;;2069085;28;20686;-61
2022/01/30 00:59:20;;;;;;;11.93;7.90;;;;;21.00;101392.00;;;;2068420;28;20701;-61
2022/01/30 01:00:21;;;;;;;10.87;7.40;;;;;21.00;101391.00;;;;2068603;28;20715;-61
2022/01/30 01:01:21;;;;;;;11.10;7.57;;;;;21.00;101396.00;;;;2068748;28;20709;-61
2022/01/30 01:02:22;;;;;;;11.03;7.00;;;;;21.00;101399.00;;;;2072914;28;20442;-61
2022/01/30 01:03:22;;;;;;;13.80;7.67;;;;;21.00;101392.00;;;;2073672;28;20233;-61
2022/01/30 01:04:22;;;;;;;11.70;7.50;;;;;21.00;101379.00;;;;2070221;28;20302;-61
2022/01/30 01:05:23;;;;;;;13.30;7.93;;;;;21.00;101400.00;;;;2068506;28;20718;-61
2022/01/30 01:06:23;;;;;;;10.40;6.17;;;;;21.00;101395.00;;;;2050839;28;20642;-61
2022/01/30 01:07:24;;;;;;;11.93;7.43;;;;;21.00;101398.00;;;;2059527;28;20720;-61
2022/01/30 01:08:35;;;;;;;13.00;7.57;;;;;21.00;101402.00;;;;2067587;28;20616;-61
2022/01/30 01:09:37;;;;;;;12.50;6.25;;;;;21.00;101395.00;;;;2068101;28;20211;-62
2022/01/30 01:10:44;;;;;;;9.60;6.93;;;;;21.00;101394.00;;;;2068815;28;20210;-61
2022/01/30 01:13:14;;;;;;;11.50;7.50;;;;;21.00;101402.00;;;;2068110;28;20233;-61
2022/01/30 01:24:31;;;;;;;13.15;5.60;;;;;20.90;101409.00;;;;2067969;28;20210;-61
2022/01/30 01:25:31;;;;;;;8.77;6.07;;;;;20.90;101400.00;;;;2068290;28;20234;-61
2022/01/30 01:26:31;;;;;;;9.60;5.40;;;;;20.90;101397.00;;;;2067845;28;20241;-61
2022/01/30 01:27:33;;;;;;;9.03;5.47;;;;;20.90;101393.00;;;;2071013;28;20284;-61
2022/01/30 01:28:33;;;;;;;10.98;5.38;;;;;20.90;101393.00;;;;2064920;28;20625;-61
2022/01/30 01:29:34;;;;;;;10.40;5.53;;;;;20.90;101396.00;;;;2068244;28;20218;-62
2022/01/30 01:30:34;;;;;;;11.13;5.83;;;;;20.90;101400.00;;;;2067929;28;20225;-61
2022/01/30 01:31:34;;;;;;;9.13;5.57;;;;;20.90;101390.00;;;;2058726;28;20250;-61
2022/01/30 01:32:35;;;;;;;10.60;6.07;;;;;20.90;101392.00;;;;2075171;28;20216;-61
2022/01/30 01:34:42;;;;;;;10.35;6.20;;;;;20.90;101381.00;;;;2066987;28;20245;-61
2022/01/30 01:35:42;;;;;;;10.83;5.73;;;;;20.90;101386.00;;;;2058205;28;20219;-61
2022/01/30 01:36:43;;;;;;;10.70;6.40;;;;;20.90;101384.00;;;;2075847;28;20305;-61
2022/01/30 01:37:43;;;;;;;10.03;5.43;;;;;20.90;101386.00;;;;2075198;28;20218;-61
2022/01/30 01:38:43;;;;;;;12.40;5.77;;;;;20.90;101383.00;;;;2068913;28;20749;-61
2022/01/30 01:39:44;;;;;;;10.63;5.37;;;;;20.90;101389.00;;;;2068268;28;20717;-61
2022/01/30 01:40:52;;;;;;;10.80;6.20;;;;;20.90;101385.00;;;;2067592;28;20210;-61
2022/01/30 01:41:52;;;;;;;9.98;5.70;;;;;20.90;101384.00;;;;2069817;28;20301;-61
2022/01/30 01:42:55;;;;;;;8.33;5.70;;;;;20.90;101382.00;;;;2068266;28;20218;-61
2022/01/30 01:43:55;;;;;;;9.68;5.55;;;;;20.80;101377.00;;;;2064526;28;20221;-61
2022/01/30 01:44:57;;;;;;;11.20;5.67;;;;;20.90;101384.00;;;;2069625;28;20703;-61
2022/01/30 01:45:59;;;;;;;9.77;5.55;;;;;20.80;101380.00;;;;2068780;28;20225;-61
2022/01/30 01:47:00;;;;;;;9.40;4.85;;;;;20.80;101380.00;;;;2068852;28;20837;-61
2022/01/30 01:48:08;;;;;;;11.63;5.05;;;;;20.80;101373.00;;;;2068632;28;20215;-61
2022/01/30 01:49:13;;;;;;;9.45;5.40;;;;;20.80;101381.00;;;;2068863;28;20214;-61
2022/01/30 01:50:27;;;;;;;10.48;5.35;;;;;20.80;101384.00;;;;2063504;28;20249;-61
2022/01/30 01:51:30;;;;;;;9.07;5.10;;;;;20.80;101379.00;;;;2067075;28;20777;-61
2022/01/30 01:52:31;;;;;;;11.30;5.72;;;;;20.80;101386.00;;;;2064166;28;20276;-61
2022/01/30 01:53:31;;;;;;;10.50;5.27;;;;;20.80;101377.00;;;;2059445;28;20215;-61
2022/01/30 01:54:31;;;;;;;9.40;4.60;;;;;20.80;101383.00;;;;2067236;28;20242;-61
2022/01/30 01:55:32;;;;;;;10.90;5.33;;;;;20.80;101388.00;;;;2067314;28;20250;-61
2022/01/30 01:56:32;;;;;;;10.60;5.20;;;;;20.80;101381.00;;;;2067174;28;20219;-61
2022/01/30 01:57:32;;;;;;;11.77;4.80;;;;;20.80;101379.00;;;;2067741;28;20690;-61
2022/01/30 01:58:33;;;;;;;9.47;5.30;;;;;20.80;101379.00;;;;2067983;28;20218;-61
2022/01/30 01:59:33;;;;;;;7.73;4.50;;;;;20.80;101384.00;;;;2067648;28;20217;-61
2022/01/30 02:00:34;;;;;;;10.90;5.50;;;;;20.80;101385.00;;;;2066607;28;20234;-61
2022/01/30 02:01:34;;;;;;;10.23;5.00;;;;;20.80;101389.00;;;;2067290;28;20211;-61
2022/01/30 02:02:34;;;;;;;10.40;5.10;;;;;20.80;101389.00;;;;2067227;28;20697;-61
2022/01/30 02:03:36;;;;;;;7.77;4.27;;;;;20.80;101393.00;;;;2064292;28;20710;-61
2022/01/30 02:04:38;;;;;;;8.85;4.68;;;;;20.80;101391.00;;;;2075633;28;20313;-61
2022/01/30 02:05:40;;;;;;;8.95;4.35;;;;;20.80;101399.00;;;;2067454;28;20241;-61
2022/01/30 02:06:40;;;;;;;10.73;4.55;;;;;20.80;101396.00;;;;2065750;28;20320;-61
2022/01/30 02:09:00;;;;;;;11.27;4.68;;;;;20.80;101405.00;;;;2066462;28;20217;-61
2022/01/30 02:10:03;;;;;;;10.45;5.22;;;;;20.80;101410.00;;;;2059187;28;20315;-61
2022/01/30 02:11:11;;;;;;;9.45;4.80;;;;;20.80;101420.00;;;;2060376;28;20307;-61
2022/01/30 02:12:17;;;;;;;7.88;4.68;;;;;20.80;101415.00;;;;2065058;28;20225;-61
2022/01/30 02:15:29;;;;;;;11.30;4.18;;;;;20.80;101420.00;;;;2064288;28;20312;-61
2022/01/30 02:24:12;;;;;;;12.27;3.90;;;;;20.70;101427.00;;;;2058134;28;20219;-61
2022/01/30 02:25:35;;;;;;;6.80;3.95;;;;;20.70;101424.00;;;;2061425;28;20914;-61
2022/01/30 02:26:36;;;;;;;7.75;3.78;;;;;20.70;101424.00;;;;2065575;28;20246;-61
2022/01/30 02:27:38;;;;;;;9.05;4.63;;;;;20.70;101424.00;;;;2067832;28;20226;-61
2022/01/30 02:28:38;;;;;;;10.25;4.30;;;;;20.70;101432.00;;;;2067878;28;20245;-61
2022/01/30 02:29:39;;;;;;;10.70;4.23;;;;;20.70;101434.00;;;;2067810;28;20226;-61
2022/01/30 02:30:44;;;;;;;6.73;4.00;;;;;20.70;101436.00;;;;2066573;28;20210;-60
2022/01/30 02:31:45;;;;;;;8.85;4.07;;;;;20.70;101438.00;;;;2055241;28;20237;-61
2022/01/30 02:32:46;;;;;;;8.30;4.00;;;;;20.70;101438.00;;;;2058160;28;20266;-61
2022/01/30 02:33:47;;;;;;;8.95;4.72;;;;;20.70;101439.00;;;;2066270;28;20237;-61
2022/01/30 02:34:47;;;;;;;9.30;3.87;;;;;20.70;101442.00;;;;2063570;28;20214;-61
2022/01/30 02:35:47;;;;;;;8.40;4.00;;;;;20.70;101439.00;;;;2067186;28;20305;-61
2022/01/30 02:36:50;;;;;;;8.57;4.00;;;;;20.70;101454.00;;;;2064989;28;20686;-61
2022/01/30 02:37:53;;;;;;;9.48;4.60;;;;;20.70;101450.00;;;;2064939;28;20219;-61
2022/01/30 02:38:57;;;;;;;9.68;4.30;;;;;20.70;101442.00;;;;2067913;28;20270;-61
2022/01/30 02:39:58;;;;;;;8.20;4.50;;;;;20.70;101448.00;;;;2067073;28;20310;-61
2022/01/30 02:40:58;;;;;;;9.20;4.40;;;;;20.70;101443.00;;;;2066691;28;20221;-61
2022/01/30 02:41:59;;;;;;;9.40;4.00;;;;;20.70;101445.00;;;;2066985;28;20748;-61
2022/01/30 02:42:59;;;;;;;10.27;4.30;;;;;20.70;101455.00;;;;2067024;28;20237;-61
2022/01/30 02:44:11;;;;;;;8.40;4.43;;;;;20.70;101444.00;;;;2067016;28;20210;-61
2022/01/30 02:45:14;;;;;;;7.10;3.45;;;;;20.70;101447.00;;;;2063952;28;20233;-61
2022/01/30 02:46:29;;;;;;;6.97;3.42;;;;;20.60;101445.00;;;;2067018;28;20214;-61
2022/01/30 02:48:48;;;;;;;8.25;4.10;;;;;20.60;101458.00;;;;2067234;28;20210;-61
2022/01/30 02:51:11;;;;;;;8.30;4.00;;;;;20.70;101452.00;;;;2058523;28;20214;-61
2022/01/30 02:52:12;;;;;;;7.38;4.15;;;;;20.60;101454.00;;;;2063364;28;20222;-61
2022/01/30 02:53:13;;;;;;;9.77;3.90;;;;;20.60;101458.00;;;;2067383;28;20589;-61
2022/01/30 02:54:13;;;;;;;6.97;3.80;;;;;20.60;101466.00;;;;2067345;28;20211;-61
2022/01/30 02:55:14;;;;;;;11.90;4.73;;;;;20.60;101458.00;;;;2067537;28;20718;-61
2022/01/30 02:56:14;;;;;;;8.03;3.90;;;;;20.60;101469.00;;;;2067498;28;20257;-61
2022/01/30 02:57:14;;;;;;;9.50;4.50;;;;;20.60;101458.00;;;;2066965;28;20218;-61
2022/01/30 02:58:16;;;;;;;8.10;3.97;;;;;20.60;101467.00;;;;2066864;28;20280;-61
2022/01/30 02:59:16;;;;;;;13.57;4.35;;;;;20.60;101457.00;;;;2065646;28;20218;-61
2022/01/30 03:00:17;;;;;;;9.60;4.17;;;;;20.60;101462.00;;;;2066649;28;20222;-62
2022/01/30 03:01:17;;;;;;;8.77;4.30;;;;;20.60;101460.00;;;;2066743;28;20215;-61
2022/01/30 03:02:17;;;;;;;7.67;4.03;;;;;20.60;101457.00;;;;2068201;28;20705;-61
2022/01/30 03:03:18;;;;;;;8.53;3.67;;;;;20.60;101459.00;;;;2067480;28;20738;-61
2022/01/30 03:04:18;;;;;;;8.30;4.17;;;;;20.60;101459.00;;;;2066689;28;20222;-61
2022/01/30 03:05:19;;;;;;;11.37;4.27;;;;;20.60;101450.00;;;;2068238;28;20211;-61
2022/01/30 03:06:19;;;;;;;6.83;3.43;;;;;20.60;101461.00;;;;2067449;28;20270;-61
2022/01/30 03:07:19;;;;;;;10.33;4.37;;;;;20.60;101454.00;;;;2057879;28;20454;-61
2022/01/30 03:08:20;;;;;;;8.77;3.37;;;;;20.60;101450.00;;;;2074796;28;20244;-61
2022/01/30 03:09:20;;;;;;;7.30;3.73;;;;;20.60;101447.00;;;;2068670;28;20284;-61
2022/01/30 03:10:21;;;;;;;8.37;4.10;;;;;20.60;101449.00;;;;2067199;28;20218;-61
2022/01/30 03:11:21;;;;;;;9.00;4.50;;;;;20.60;101463.00;;;;2067172;28;20215;-61
2022/01/30 03:12:22;;;;;;;6.50;3.93;;;;;20.60;101456.00;;;;2067129;28;20207;-61
2022/01/30 03:13:22;;;;;;;10.20;4.00;;;;;20.60;101455.00;;;;2065220;28;20341;-61
2022/01/30 03:14:22;;;;;;;7.90;3.83;;;;;20.60;101455.00;;;;2067747;28;20264;-61
2022/01/30 03:15:23;;;;;;;10.50;4.30;;;;;20.60;101449.00;;;;2068120;28;20303;-61
2022/01/30 03:16:23;;;;;;;9.93;4.53;;;;;20.60;101451.00;;;;2068019;28;20207;-62
2022/01/30 03:17:23;;;;;;;8.80;3.80;;;;;20.60;101455.00;;;;2065701;28;20546;-61
2022/01/30 03:18:24;;;;;;;8.80;3.80;;;;;20.60;101441.00;;;;2065309;28;20715;-61
2022/01/30 03:19:24;;;;;;;8.10;3.40;;;;;20.60;101446.00;;;;2066924;28;20804;-61
2022/01/30 03:20:24;;;;;;;8.10;4.40;;;;;20.50;101452.00;;;;2066853;28;20214;-61
2022/01/30 03:21:25;;;;;;;7.73;3.73;;;;;20.50;101454.00;;;;2067234;28;20215;-61
2022/01/30 03:22:26;;;;;;;8.37;3.83;;;;;20.60;101453.00;;;;2064988;28;20273;-61
2022/01/30 03:23:27;;;;;;;8.90;3.95;;;;;20.60;101451.00;;;;2067628;28;20214;-61
2022/01/30 03:24:35;;;;;;;10.05;3.53;;;;;20.60;101450.00;;;;2059200;28;20216;-61
2022/01/30 03:25:35;;;;;;;8.73;4.00;;;;;20.50;101450.00;;;;2060108;28;20211;-61
2022/01/30 03:26:38;;;;;;;9.60;4.33;;;;;20.50;101452.00;;;;2064723;28;20209;-61
2022/01/30 03:27:44;;;;;;;6.85;4.05;;;;;20.50;101461.00;;;;2066360;28;20645;-61
2022/01/30 03:28:48;;;;;;;7.90;4.00;;;;;20.50;101453.00;;;;2066749;28;20215;-61
2022/01/30 03:30:02;;;;;;;12.48;4.00;;;;;20.50;101453.00;;;;2068061;28;20241;-61
2022/01/30 03:31:06;;;;;;;10.18;4.07;;;;;20.50;101453.00;;;;2066793;28;20566;-61
2022/01/30 03:32:07;;;;;;;9.85;4.00;;;;;20.50;101457.00;;;;2064068;28;20228;-61
2022/01/30 03:33:07;;;;;;;11.87;4.47;;;;;20.50;101450.00;;;;2067109;28;20214;-61
2022/01/30 03:34:09;;;;;;;8.40;3.53;;;;;20.60;101455.00;;;;2067217;28;20225;-61
2022/01/30 03:35:09;;;;;;;10.35;4.38;;;;;20.50;101465.00;;;;2067958;28;20316;-61
2022/01/30 03:36:10;;;;;;;8.67;3.50;;;;;20.50;101457.00;;;;2067375;28;20648;-60
2022/01/30 03:37:10;;;;;;;10.67;3.50;;;;;20.50;101453.00;;;;2067219;28;20565;-61
2022/01/30 03:38:10;;;;;;;7.90;3.30;;;;;20.50;101455.00;;;;2067737;28;20210;-61
2022/01/30 03:39:11;;;;;;;11.97;3.60;;;;;20.50;101456.00;;;;2067039;28;20202;-61
2022/01/30 03:40:11;;;;;;;8.67;3.67;;;;;20.50;101458.00;;;;2067229;28;20225;-61
2022/01/30 03:41:12;;;;;;;10.50;4.07;;;;;20.50;101462.00;;;;2066862;28;20226;-61
2022/01/30 03:42:12;;;;;;;10.00;3.20;;;;;20.50;101458.00;;;;2063181;28;20628;-61
2022/01/30 03:43:12;;;;;;;8.43;3.97;;;;;20.50;101467.00;;;;2067900;28;20260;-61
2022/01/30 03:44:13;;;;;;;7.33;3.80;;;;;20.50;101465.00;;;;2067902;28;20217;-61
2022/01/30 03:45:13;;;;;;;9.10;3.57;;;;;20.50;101465.00;;;;2068027;28;20211;-61
2022/01/30 03:46:13;;;;;;;9.77;3.80;;;;;20.40;101472.00;;;;2067948;28;20212;-61
2022/01/30 03:47:14;;;;;;;10.47;4.10;;;;;20.50;101475.00;;;;2067166;28;20206;-61
2022/01/30 03:48:14;;;;;;;6.97;3.03;;;;;20.50;101477.00;;;;2067031;28;20260;-61
2022/01/30 03:49:14;;;;;;;9.47;3.50;;;;;20.50;101479.00;;;;2067139;28;20708;-61
2022/01/30 03:50:15;;;;;;;10.20;4.20;;;;;20.50;101472.00;;;;2066887;28;20207;-61
2022/01/30 03:51:15;;;;;;;7.90;3.53;;;;;20.50;101471.00;;;;2066563;28;20702;-61
2022/01/30 03:52:16;;;;;;;8.53;3.40;;;;;20.50;101474.00;;;;2063009;28;20675;-61
2022/01/30 03:53:17;;;;;;;10.30;4.45;;;;;20.40;101473.00;;;;2067124;28;20207;-61
2022/01/30 03:54:17;;;;;;;7.80;3.20;;;;;20.50;101468.00;;;;2067205;28;20202;-61
2022/01/30 03:55:18;;;;;;;8.87;3.47;;;;;20.50;101466.00;;;;2067475;28;20253;-62
2022/01/30 03:56:18;;;;;;;9.60;3.33;;;;;20.50;101468.00;;;;2065690;28;20484;-61
2022/01/30 03:57:18;;;;;;;10.33;3.77;;;;;20.50;101468.00;;;;2066120;28;20639;-61
2022/01/30 03:58:19;;;;;;;7.13;3.47;;;;;20.50;101477.00;;;;2067101;28;20211;-61
2022/01/30 03:59:19;;;;;;;9.37;3.83;;;;;20.50;101479.00;;;;2067054;28;20250;-61
2022/01/30 04:00:20;;;;;;;11.73;3.90;;;;;20.50;101478.00;;;;2067797;28;20215;-61
2022/01/30 04:01:20;;;;;;;6.80;3.40;;;;;20.50;101470.00;;;;2067678;28;20284;-62
2022/01/30 04:02:20;;;;;;;10.83;3.97;;;;;20.40;101470.00;;;;2064930;28;20217;-61
2022/01/30 04:03:21;;;;;;;7.90;3.80;;;;;20.40;101476.00;;;;2067976;28;20789;-61
2022/01/30 04:04:21;;;;;;;7.40;3.17;;;;;20.40;101477.00;;;;2067162;28;20764;-61
2022/01/30 04:05:21;;;;;;;9.07;3.97;;;;;20.40;101472.00;;;;2066740;28;20213;-61
2022/01/30 04:06:22;;;;;;;10.27;4.23;;;;;20.40;101474.00;;;;2067041;28;20207;-61
2022/01/30 04:07:23;;;;;;;7.87;3.63;;;;;20.40;101470.00;;;;2066647;28;20298;-61
2022/01/30 04:08:23;;;;;;;7.40;3.60;;;;;20.40;101465.00;;;;2070735;28;20214;-61
2022/01/30 04:09:25;;;;;;;9.50;3.63;;;;;20.40;101470.00;;;;2066401;28;20202;-61
2022/01/30 04:10:25;;;;;;;10.40;3.70;;;;;20.40;101485.00;;;;2066085;28;20206;-62
2022/01/30 04:11:27;;;;;;;9.50;3.43;;;;;20.40;101475.00;;;;2066867;28;20666;-61
2022/01/30 04:12:28;;;;;;;9.35;3.60;;;;;20.40;101471.00;;;;2052281;28;20224;-61
2022/01/30 04:13:28;;;;;;;6.37;3.00;;;;;20.40;101475.00;;;;2074625;28;20234;-61
2022/01/30 04:14:29;;;;;;;6.57;3.10;;;;;20.40;101467.00;;;;2072193;28;20221;-61
2022/01/30 04:15:29;;;;;;;7.50;3.13;;;;;20.40;101481.00;;;;2067203;28;20233;-61
2022/01/30 04:16:30;;;;;;;8.00;3.50;;;;;20.40;101481.00;;;;2066392;28;20242;-61
2022/01/30 04:17:30;;;;;;;7.90;3.20;;;;;20.40;101477.00;;;;2066273;28;20210;-61
2022/01/30 04:18:30;;;;;;;13.17;3.70;;;;;20.40;101476.00;;;;2066341;28;20224;-61
2022/01/30 04:19:31;;;;;;;9.60;3.20;;;;;20.40;101481.00;;;;2066711;28;20758;-61
2022/01/30 04:20:31;;;;;;;8.00;3.53;;;;;20.40;101483.00;;;;2063152;28;20260;-62
2022/01/30 04:21:32;;;;;;;7.80;3.40;;;;;20.40;101478.00;;;;2065207;28;20360;-61
2022/01/30 04:22:32;;;;;;;8.43;3.37;;;;;20.40;101477.00;;;;2074845;28;20753;-61
2022/01/30 04:23:33;;;;;;;9.63;3.87;;;;;20.40;101481.00;;;;2072107;28;20214;-61
2022/01/30 04:24:33;;;;;;;8.07;3.30;;;;;20.40;101486.00;;;;2067577;28;20677;-61
2022/01/30 04:25:33;;;;;;;8.80;3.43;;;;;20.40;101481.00;;;;2066886;28;20206;-61
2022/01/30 04:26:34;;;;;;;8.60;3.80;;;;;20.40;101482.00;;;;2066300;28;20213;-61
2022/01/30 04:27:34;;;;;;;9.03;3.80;;;;;20.40;101489.00;;;;2063735;28;20254;-61
2022/01/30 04:28:35;;;;;;;9.63;3.60;;;;;20.40;101503.00;;;;2067041;28;20214;-61
2022/01/30 04:29:35;;;;;;;8.40;3.67;;;;;20.40;101496.00;;;;2063362;28;20210;-61
2022/01/30 04:30:36;;;;;;;8.57;3.47;;;;;20.40;101488.00;;;;2064629;28;20222;-61
2022/01/30 04:31:36;;;;;;;6.60;2.80;;;;;20.40;101499.00;;;;2067588;28;20230;-61
2022/01/30 04:32:41;;;;;;;8.70;3.10;;;;;20.40;101501.00;;;;2059792;28;20613;-61
2022/01/30 04:33:42;;;;;;;6.10;3.15;;;;;20.40;101494.00;;;;2059643;28;20905;-61
2022/01/30 04:34:44;;;;;;;8.00;3.33;;;;;20.40;101492.00;;;;2064742;28;20236;-61
2022/01/30 04:35:45;;;;;;;9.52;3.28;;;;;20.40;101500.00;;;;2067017;28;20230;-61
2022/01/30 04:38:06;;;;;;;7.00;3.08;;;;;20.40;101516.00;;;;2058360;28;20220;-61
2022/01/30 04:39:26;;;;;;;8.60;3.20;;;;;20.30;101512.00;;;;2066815;28;20214;-61
2022/01/30 04:52:25;;;;;;;7.82;3.55;;;;;20.30;101523.00;;;;2064037;28;20215;-61
2022/01/30 04:53:40;;;;;;;6.65;3.05;;;;;20.30;101530.00;;;;2066475;28;20877;-61
2022/01/30 04:57:00;;;;;;;7.93;3.40;;;;;20.30;101528.00;;;;2064969;28;20223;-61
2022/01/30 05:00:32;;;;;;;8.13;3.15;;;;;20.30;101526.00;;;;2064598;28;20233;-61
2022/01/30 05:03:23;;;;;;;8.10;3.30;;;;;20.30;101532.00;;;;2069178;28;20214;-61
2022/01/30 05:04:28;;;;;;;6.15;2.65;;;;;20.20;101521.00;;;;2064823;28;20301;-61
2022/01/30 05:07:34;;;;;;;7.50;2.80;;;;;20.30;101524.00;;;;2066591;28;20744;-61
2022/01/30 05:08:12;;;;;;;7.65;3.38;;;;;20.30;101529.00;;;;2057571;28;20215;-61
2022/01/30 05:09:13;;;;;;;8.50;3.10;;;;;20.20;101532.00;;;;2068511;28;20215;-61
2022/01/30 05:10:13;;;;;;;8.20;3.00;;;;;20.30;101537.00;;;;2068451;28;20237;-61
2022/01/30 05:11:14;;;;;;;6.63;3.10;;;;;20.30;101533.00;;;;2067689;28;20249;-61
2022/01/30 05:12:15;;;;;;;6.90;3.00;;;;;20.30;101540.00;;;;2067868;28;20222;-60
2022/01/30 05:13:17;;;;;;;7.32;2.72;;;;;20.30;101535.00;;;;2064182;28;20651;-61
2022/01/30 05:14:20;;;;;;;7.28;3.00;;;;;20.20;101530.00;;;;2067004;28;20237;-61
2022/01/30 05:15:21;;;;;;;8.52;3.67;;;;;20.30;101544.00;;;;2058432;28;20222;-61
2022/01/30 05:16:23;;;;;;;10.50;4.23;;;;;20.20;101541.00;;;;2068668;28;20207;-61
2022/01/30 05:17:23;;;;;;;8.00;3.00;;;;;20.20;101537.00;;;;2068759;28;20469;-61
2022/01/30 05:18:25;;;;;;;7.80;3.40;;;;;20.30;101533.00;;;;2068853;28;20698;-61
2022/01/30 05:19:26;;;;;;;8.38;3.17;;;;;20.30;101537.00;;;;2066607;28;20206;-61
2022/01/30 05:20:29;;;;;;;7.27;3.53;;;;;20.30;101536.00;;;;2067284;28;20209;-61
2022/01/30 05:21:30;;;;;;;6.70;2.95;;;;;20.20;101540.00;;;;2068144;28;20210;-61
2022/01/30 05:22:30;;;;;;;7.70;3.10;;;;;20.30;101531.00;;;;2068058;28;20206;-61
2022/01/30 05:23:31;;;;;;;11.83;3.73;;;;;20.20;101528.00;;;;2068125;28;20206;-61
2022/01/30 05:24:31;;;;;;;9.90;3.93;;;;;20.20;101533.00;;;;2068856;28;20207;-61
2022/01/30 05:25:32;;;;;;;11.10;3.13;;;;;20.20;101529.00;;;;2058837;28;20203;-61
2022/01/30 05:26:32;;;;;;;4.73;2.40;;;;;20.20;101536.00;;;;2076403;28;20294;-61
2022/01/30 05:27:33;;;;;;;6.37;3.30;;;;;20.20;101539.00;;;;2073789;28;20668;-61
2022/01/30 05:28:33;;;;;;;6.97;3.60;;;;;20.20;101524.00;;;;2067397;28;20242;-61
2022/01/30 05:29:34;;;;;;;7.73;2.90;;;;;20.20;101527.00;;;;2067397;28;20309;-61
2022/01/30 05:30:35;;;;;;;7.60;2.97;;;;;20.20;101521.00;;;;2065719;28;20685;-61
2022/01/30 05:31:36;;;;;;;7.28;3.13;;;;;20.20;101544.00;;;;2068040;28;20215;-61
2022/01/30 05:32:36;;;;;;;10.30;3.70;;;;;20.20;101528.00;;;;2058750;28;20215;-61
2022/01/30 05:33:37;;;;;;;7.40;2.50;;;;;20.20;101533.00;;;;2066664;28;20206;-61
2022/01/30 05:34:37;;;;;;;9.87;3.47;;;;;20.20;101540.00;;;;2063867;28;20214;-61
2022/01/30 05:35:38;;;;;;;7.97;3.10;;;;;20.20;101539.00;;;;2063583;28;20227;-61
2022/01/30 05:36:38;;;;;;;8.07;3.43;;;;;20.20;101547.00;;;;2058848;28;20218;-61
2022/01/30 05:37:39;;;;;;;8.80;3.20;;;;;20.20;101548.00;;;;2067237;28;21063;-61
2022/01/30 05:38:40;;;;;;;7.30;3.15;;;;;20.20;101546.00;;;;2067118;28;20268;-61
2022/01/30 05:39:40;;;;;;;8.73;3.67;;;;;20.20;101544.00;;;;2068068;28;20584;-61
2022/01/30 05:40:41;;;;;;;8.93;3.77;;;;;20.20;101552.00;;;;2068225;28;20219;-61
2022/01/30 05:41:42;;;;;;;6.90;2.83;;;;;20.20;101540.00;;;;2068787;28;20577;-61
2022/01/30 05:42:42;;;;;;;8.40;3.30;;;;;20.20;101545.00;;;;2067388;28;20219;-61
2022/01/30 05:43:45;;;;;;;8.70;3.17;;;;;20.20;101552.00;;;;2068257;28;20222;-61
2022/01/30 05:45:07;;;;;;;6.65;3.00;;;;;20.20;101549.00;;;;2067799;28;20302;-61
2022/01/30 05:46:13;;;;;;;6.80;2.80;;;;;20.20;101561.00;;;;2068320;28;20211;-61
2022/01/30 05:47:25;;;;;;;8.00;3.25;;;;;20.20;101551.00;;;;2064411;28;20242;-61
2022/01/30 05:48:26;;;;;;;8.98;3.25;;;;;20.20;101550.00;;;;2055975;28;20214;-61
2022/01/30 05:49:26;;;;;;;9.10;3.60;;;;;20.20;101556.00;;;;2059160;28;20244;-61
2022/01/30 05:50:27;;;;;;;6.97;3.40;;;;;20.20;101555.00;;;;2058387;28;20266;-61
2022/01/30 05:51:27;;;;;;;10.40;2.90;;;;;20.20;101552.00;;;;2058766;28;20227;-61
2022/01/30 05:52:27;;;;;;;7.07;3.03;;;;;20.20;101554.00;;;;2068009;28;20699;-61
2022/01/30 05:53:28;;;;;;;9.03;3.40;;;;;20.20;101563.00;;;;2068181;28;20580;-61